sensor_id;sensor_type;location;lat;lon;timestamp;pressure;altitude;pressure_sealevel;temperature;humidity
68712;BME280;55690;51.566;19.198;2023-02-28T00:02:38;103097.55;;;4.00;64.58
68712;BME280;55690;51.566;19.198;2023-02-28T00:06:44;103100.21;;;4.05;64.78
68712;BME280;55690;51.566;19.198;2023-02-28T00:10:50;103081.90;;;4.41;64.18
68712;BME280;55690;51.566;19.198;2023-02-28T00:14:56;103086.23;;;4.55;64.48
68712;BME280;55690;51.566;19.198;2023-02-28T00:19:02;103082.73;;;4.47;64.67
68712;BME280;55690;51.566;19.198;2023-02-28T00:23:09;103077.80;;;4.81;63.29
68712;BME280;55690;51.566;19.198;2023-02-28T00:27:15;103076.63;;;5.04;63.91
68712;BME280;55690;51.566;19.198;2023-02-28T00:31:22;103085.87;;;4.83;63.19
68712;BME280;55690;51.566;19.198;2023-02-28T00:35:28;103083.14;;;4.86;63.47
68712;BME280;55690;51.566;19.198;2023-02-28T00:39:36;103084.77;;;4.27;65.11
68712;BME280;55690;51.566;19.198;2023-02-28T00:43:40;103106.27;;;4.27;65.08
68712;BME280;55690;51.566;19.198;2023-02-28T00:47:46;103091.54;;;4.61;64.62
68712;BME280;55690;51.566;19.198;2023-02-28T00:51:54;103087.94;;;4.62;63.75
68712;BME280;55690;51.566;19.198;2023-02-28T00:55:59;103095.16;;;4.57;63.33
68712;BME280;55690;51.566;19.198;2023-02-28T01:00:07;103088.83;;;4.63;63.59
68712;BME280;55690;51.566;19.198;2023-02-28T01:04:12;103089.86;;;4.51;62.84
68712;BME280;55690;51.566;19.198;2023-02-28T01:08:17;103098.66;;;4.67;63.22
68712;BME280;55690;51.566;19.198;2023-02-28T01:12:23;103089.43;;;4.85;63.35
68712;BME280;55690;51.566;19.198;2023-02-28T01:16:30;103092.51;;;4.56;63.79
68712;BME280;55690;51.566;19.198;2023-02-28T01:20:37;103090.56;;;4.68;63.63
68712;BME280;55690;51.566;19.198;2023-02-28T01:24:42;103075.38;;;4.63;63.61
68712;BME280;55690;51.566;19.198;2023-02-28T01:28:49;103089.73;;;4.62;63.67
68712;BME280;55690;51.566;19.198;2023-02-28T01:32:54;103084.40;;;4.59;63.02
68712;BME280;55690;51.566;19.198;2023-02-28T01:37:00;103087.05;;;4.62;63.17
68712;BME280;55690;51.566;19.198;2023-02-28T01:41:07;103082.64;;;4.55;63.01
68712;BME280;55690;51.566;19.198;2023-02-28T01:45:21;103082.09;;;4.25;63.06
68712;BME280;55690;51.566;19.198;2023-02-28T01:49:24;103085.66;;;4.27;63.28
68712;BME280;55690;51.566;19.198;2023-02-28T01:53:34;103090.28;;;4.13;64.09
68712;BME280;55690;51.566;19.198;2023-02-28T01:57:41;103086.81;;;3.99;63.98
68712;BME280;55690;51.566;19.198;2023-02-28T02:01:44;103087.68;;;4.01;65.05
68712;BME280;55690;51.566;19.198;2023-02-28T02:05:45;103083.05;;;4.18;64.39
68712;BME280;55690;51.566;19.198;2023-02-28T02:10:05;103080.65;;;3.89;63.90
68712;BME280;55690;51.566;19.198;2023-02-28T02:35:13;103079.87;;;3.77;63.83
68712;BME280;55690;51.566;19.198;2023-02-28T02:39:29;103074.66;;;3.55;64.40
68712;BME280;55690;51.566;19.198;2023-02-28T02:47:45;103078.43;;;3.31;64.58
68712;BME280;55690;51.566;19.198;2023-02-28T02:51:48;103081.99;;;3.32;65.08
68712;BME280;55690;51.566;19.198;2023-02-28T02:55:52;103082.97;;;3.19;65.30
68712;BME280;55690;51.566;19.198;2023-02-28T02:59:56;103080.31;;;3.14;64.63
68712;BME280;55690;51.566;19.198;2023-02-28T03:04:02;103087.39;;;3.30;64.35
68712;BME280;55690;51.566;19.198;2023-02-28T03:08:04;103084.73;;;3.24;64.71
68712;BME280;55690;51.566;19.198;2023-02-28T03:12:11;103087.57;;;3.00;66.19
68712;BME280;55690;51.566;19.198;2023-02-28T03:33:23;103111.79;;;2.85;65.81
68712;BME280;55690;51.566;19.198;2023-02-28T03:37:28;103114.63;;;2.36;67.67
68712;BME280;55690;51.566;19.198;2023-02-28T03:41:43;103110.14;;;2.46;67.12
68712;BME280;55690;51.566;19.198;2023-02-28T03:45:51;103119.95;;;2.59;66.05
68712;BME280;55690;51.566;19.198;2023-02-28T03:49:59;103114.63;;;2.33;66.80
68712;BME280;55690;51.566;19.198;2023-02-28T03:54:07;103126.24;;;2.43;66.91
68712;BME280;55690;51.566;19.198;2023-02-28T04:02:26;103119.12;;;2.17;67.31
68712;BME280;55690;51.566;19.198;2023-02-28T04:06:31;103121.80;;;2.23;67.39
68712;BME280;55690;51.566;19.198;2023-02-28T04:10:34;103123.62;;;2.14;67.32
68712;BME280;55690;51.566;19.198;2023-02-28T04:14:35;103122.70;;;2.18;67.70
68712;BME280;55690;51.566;19.198;2023-02-28T04:18:36;103120.05;;;1.99;68.07
68712;BME280;55690;51.566;19.198;2023-02-28T04:22:38;103128.05;;;2.18;66.78
68712;BME280;55690;51.566;19.198;2023-02-28T04:26:42;103125.41;;;1.83;68.82
68712;BME280;55690;51.566;19.198;2023-02-28T04:30:44;103118.27;;;2.05;67.78
68712;BME280;55690;51.566;19.198;2023-02-28T04:34:46;103121.84;;;2.05;68.32
68712;BME280;55690;51.566;19.198;2023-02-28T04:38:47;103126.30;;;2.02;67.94
68712;BME280;55690;51.566;19.198;2023-02-28T04:42:48;103142.38;;;1.91;68.49
68712;BME280;55690;51.566;19.198;2023-02-28T04:46:50;103131.66;;;1.97;68.17
68712;BME280;55690;51.566;19.198;2023-02-28T04:50:51;103130.77;;;1.81;68.18
68712;BME280;55690;51.566;19.198;2023-02-28T04:54:53;103115.58;;;1.97;67.28
68712;BME280;55690;51.566;19.198;2023-02-28T04:58:54;103127.20;;;1.97;67.66
68712;BME280;55690;51.566;19.198;2023-02-28T05:02:56;103126.30;;;1.76;68.60
68712;BME280;55690;51.566;19.198;2023-02-28T05:06:58;103130.79;;;1.72;68.02
68712;BME280;55690;51.566;19.198;2023-02-28T05:10:59;103129.87;;;1.59;68.19
68712;BME280;55690;51.566;19.198;2023-02-28T05:15:05;103128.95;;;1.50;68.38
68712;BME280;55690;51.566;19.198;2023-02-28T05:19:07;103136.03;;;1.31;68.61
68712;BME280;55690;51.566;19.198;2023-02-28T05:23:11;103135.20;;;1.49;69.26
68712;BME280;55690;51.566;19.198;2023-02-28T05:27:13;103138.80;;;1.54;68.79
68712;BME280;55690;51.566;19.198;2023-02-28T05:31:15;103138.80;;;1.57;68.37
68712;BME280;55690;51.566;19.198;2023-02-28T05:35:17;103138.80;;;1.61;68.36
68712;BME280;55690;51.566;19.198;2023-02-28T05:39:19;103142.34;;;1.48;68.89
68712;BME280;55690;51.566;19.198;2023-02-28T05:43:21;103150.34;;;1.39;68.99
68712;BME280;55690;51.566;19.198;2023-02-28T05:47:22;103158.35;;;1.24;69.36
68712;BME280;55690;51.566;19.198;2023-02-28T05:51:24;103171.81;;;1.53;69.94
68712;BME280;55690;51.566;19.198;2023-02-28T05:55:31;103166.49;;;1.66;69.08
68712;BME280;55690;51.566;19.198;2023-02-28T05:59:37;103165.56;;;1.54;69.82
68712;BME280;55690;51.566;19.198;2023-02-28T06:03:43;103183.41;;;1.52;69.93
68712;BME280;55690;51.566;19.198;2023-02-28T06:07:49;103180.75;;;1.61;68.82
68712;BME280;55690;51.566;19.198;2023-02-28T06:12:04;103195.91;;;1.56;69.25
68712;BME280;55690;51.566;19.198;2023-02-28T06:16:11;103195.95;;;1.66;69.64
68712;BME280;55690;51.566;19.198;2023-02-28T06:20:15;103208.46;;;1.86;69.57
68712;BME280;55690;51.566;19.198;2023-02-28T06:24:23;103208.45;;;1.80;69.48
68712;BME280;55690;51.566;19.198;2023-02-28T06:28:27;103213.80;;;1.83;70.16
68712;BME280;55690;51.566;19.198;2023-02-28T06:32:33;103225.43;;;1.86;70.27
68712;BME280;55690;51.566;19.198;2023-02-28T06:36:41;103218.31;;;2.04;69.85
68712;BME280;55690;51.566;19.198;2023-02-28T06:40:57;103228.14;;;2.24;69.13
68712;BME280;55690;51.566;19.198;2023-02-28T06:44:58;103230.81;;;2.27;69.74
68712;BME280;55690;51.566;19.198;2023-02-28T06:49:00;103223.67;;;2.40;68.52
68712;BME280;55690;51.566;19.198;2023-02-28T06:53:04;103225.41;;;2.64;68.69
68712;BME280;55690;51.566;19.198;2023-02-28T06:57:10;103223.59;;;2.92;68.29
68712;BME280;55690;51.566;19.198;2023-02-28T07:01:17;103211.93;;;3.00;68.00
68712;BME280;55690;51.566;19.198;2023-02-28T07:05:23;103223.30;;;3.54;68.04
68712;BME280;55690;51.566;19.198;2023-02-28T07:09:29;103219.59;;;3.80;67.77
68712;BME280;55690;51.566;19.198;2023-02-28T07:13:35;103225.74;;;3.94;67.23
68712;BME280;55690;51.566;19.198;2023-02-28T07:17:41;103220.22;;;4.15;67.41
68712;BME280;55690;51.566;19.198;2023-02-28T07:21:48;103218.01;;;4.63;66.11
68712;BME280;55690;51.566;19.198;2023-02-28T07:25:54;103223.57;;;4.42;65.93
68712;BME280;55690;51.566;19.198;2023-02-28T07:30:00;103216.34;;;4.50;65.30
68712;BME280;55690;51.566;19.198;2023-02-28T07:34:06;103221.66;;;4.56;65.23
68712;BME280;55690;51.566;19.198;2023-02-28T07:38:13;103220.63;;;4.69;64.83
68712;BME280;55690;51.566;19.198;2023-02-28T07:42:18;103226.52;;;5.06;64.99
68712;BME280;55690;51.566;19.198;2023-02-28T07:46:26;103230.95;;;4.18;64.95
68712;BME280;55690;51.566;19.198;2023-02-28T07:50:31;103227.76;;;4.75;65.08
68712;BME280;55690;51.566;19.198;2023-02-28T07:57:59;103213.87;;;5.13;62.91
68712;BME280;55690;51.566;19.198;2023-02-28T08:02:01;103217.40;;;5.82;62.83
68712;BME280;55690;51.566;19.198;2023-02-28T08:06:04;103202.47;;;6.18;60.82
68712;BME280;55690;51.566;19.198;2023-02-28T08:10:07;103191.56;;;6.75;60.79
68712;BME280;55690;51.566;19.198;2023-02-28T08:14:10;103198.63;;;6.33;59.69
68712;BME280;55690;51.566;19.198;2023-02-28T08:18:12;103205.08;;;6.24;60.07
68712;BME280;55690;51.566;19.198;2023-02-28T08:22:13;103199.93;;;6.60;60.20
68712;BME280;55690;51.566;19.198;2023-02-28T08:26:16;103197.53;;;6.45;59.59
68712;BME280;55690;51.566;19.198;2023-02-28T08:30:18;103187.88;;;6.79;57.89
68712;BME280;55690;51.566;19.198;2023-02-28T08:34:19;103186.24;;;7.15;56.60
68712;BME280;55690;51.566;19.198;2023-02-28T08:38:22;103190.50;;;5.15;56.77
68712;BME280;55690;51.566;19.198;2023-02-28T08:42:24;103195.29;;;6.17;57.87
68712;BME280;55690;51.566;19.198;2023-02-28T08:46:26;103192.56;;;6.19;56.77
68712;BME280;55690;51.566;19.198;2023-02-28T08:50:27;103184.07;;;5.89;56.90
68712;BME280;55690;51.566;19.198;2023-02-28T08:54:28;103180.40;;;5.95;56.18
68712;BME280;55690;51.566;19.198;2023-02-28T08:58:34;103184.42;;;6.22;56.65
68712;BME280;55690;51.566;19.198;2023-02-28T09:02:36;103176.55;;;6.08;56.05
68712;BME280;55690;51.566;19.198;2023-02-28T09:06:38;103179.56;;;6.44;56.23
68712;BME280;55690;51.566;19.198;2023-02-28T09:10:39;103174.55;;;6.70;56.20
68712;BME280;55690;51.566;19.198;2023-02-28T09:14:41;103188.98;;;6.18;56.20
68712;BME280;55690;51.566;19.198;2023-02-28T09:18:43;103188.32;;;6.55;56.52
68712;BME280;55690;51.566;19.198;2023-02-28T09:22:45;103176.87;;;7.33;56.57
68712;BME280;55690;51.566;19.198;2023-02-28T09:26:46;103174.65;;;7.10;56.26
68712;BME280;55690;51.566;19.198;2023-02-28T09:30:51;103172.55;;;7.24;56.36
68712;BME280;55690;51.566;19.198;2023-02-28T09:34:53;103179.92;;;6.22;54.99
68712;BME280;55690;51.566;19.198;2023-02-28T09:38:54;103170.27;;;7.03;55.53
68712;BME280;55690;51.566;19.198;2023-02-28T09:42:57;103172.89;;;7.49;55.12
68712;BME280;55690;51.566;19.198;2023-02-28T09:47:08;103177.34;;;7.10;55.27
68712;BME280;55690;51.566;19.198;2023-02-28T09:51:23;103185.90;;;6.41;55.06
68712;BME280;55690;51.566;19.198;2023-02-28T09:55:34;103182.60;;;7.58;56.42
68712;BME280;55690;51.566;19.198;2023-02-28T10:03:56;103189.75;;;7.20;55.07
68712;BME280;55690;51.566;19.198;2023-02-28T10:12:13;103181.45;;;6.39;55.13
68712;BME280;55690;51.566;19.198;2023-02-28T10:20:32;103176.33;;;7.56;54.48
68712;BME280;55690;51.566;19.198;2023-02-28T10:24:39;103173.14;;;6.95;54.30
68712;BME280;55690;51.566;19.198;2023-02-28T10:28:42;103180.75;;;7.20;55.11
68712;BME280;55690;51.566;19.198;2023-02-28T10:32:50;103172.68;;;7.58;55.40
68712;BME280;55690;51.566;19.198;2023-02-28T10:36:55;103165.99;;;7.36;54.13
68712;BME280;55690;51.566;19.198;2023-02-28T10:41:04;103159.35;;;7.09;54.83
68712;BME280;55690;51.566;19.198;2023-02-28T10:45:13;103162.52;;;6.88;54.73
68712;BME280;55690;51.566;19.198;2023-02-28T10:49:27;103157.55;;;7.50;54.99
68712;BME280;55690;51.566;19.198;2023-02-28T10:53:34;103162.02;;;7.11;54.19
68712;BME280;55690;51.566;19.198;2023-02-28T10:57:37;103170.64;;;6.86;54.82
68712;BME280;55690;51.566;19.198;2023-02-28T11:01:43;103173.07;;;6.03;55.17
68712;BME280;55690;51.566;19.198;2023-02-28T11:05:54;103170.41;;;6.97;55.56
68712;BME280;55690;51.566;19.198;2023-02-28T11:09:57;103170.24;;;6.60;55.80
68712;BME280;55690;51.566;19.198;2023-02-28T11:14:04;103171.75;;;7.59;55.06
68712;BME280;55690;51.566;19.198;2023-02-28T11:22:21;103155.60;;;7.56;55.03
68712;BME280;55690;51.566;19.198;2023-02-28T11:30:40;103143.21;;;7.46;53.98
68712;BME280;55690;51.566;19.198;2023-02-28T11:34:43;103135.09;;;7.46;54.42
68712;BME280;55690;51.566;19.198;2023-02-28T11:38:45;103136.37;;;8.06;54.64
68712;BME280;55690;51.566;19.198;2023-02-28T11:43:41;103135.91;;;6.66;54.55
68712;BME280;55690;51.566;19.198;2023-02-28T11:51:23;103132.73;;;7.71;54.02
68712;BME280;55690;51.566;19.198;2023-02-28T11:55:32;103124.23;;;8.22;53.39
68712;BME280;55690;51.566;19.198;2023-02-28T12:21:02;103116.99;;;7.87;53.18
68712;BME280;55690;51.566;19.198;2023-02-28T12:29:27;103096.16;;;9.19;53.00
68712;BME280;55690;51.566;19.198;2023-02-28T12:33:36;103093.98;;;9.02;52.42
68712;BME280;55690;51.566;19.198;2023-02-28T12:38:09;103083.38;;;8.94;51.32
68712;BME280;55690;51.566;19.198;2023-02-28T12:42:00;103082.30;;;9.00;52.07
68712;BME280;55690;51.566;19.198;2023-02-28T12:50:15;103082.25;;;8.06;51.94
68712;BME280;55690;51.566;19.198;2023-02-28T13:07:08;103046.74;;;9.39;51.34
68712;BME280;55690;51.566;19.198;2023-02-28T13:15:26;103053.64;;;9.21;51.78
68712;BME280;55690;51.566;19.198;2023-02-28T13:19:32;103051.04;;;8.88;51.49
68712;BME280;55690;51.566;19.198;2023-02-28T13:23:56;103052.04;;;8.55;51.42
68712;BME280;55690;51.566;19.198;2023-02-28T13:27:56;103029.81;;;9.85;50.90
68712;BME280;55690;51.566;19.198;2023-02-28T15:09:35;102999.67;;;8.56;53.74
68712;BME280;55690;51.566;19.198;2023-02-28T15:13:43;102999.13;;;7.78;54.62
68712;BME280;55690;51.566;19.198;2023-02-28T15:17:50;102988.44;;;8.06;54.05
68712;BME280;55690;51.566;19.198;2023-02-28T15:22:00;102994.57;;;8.13;54.28
68712;BME280;55690;51.566;19.198;2023-02-28T15:26:03;102991.75;;;8.78;53.48
68712;BME280;55690;51.566;19.198;2023-02-28T15:38:34;103000.27;;;8.02;54.33
68712;BME280;55690;51.566;19.198;2023-02-28T15:42:37;102991.05;;;7.77;54.50
68712;BME280;55690;51.566;19.198;2023-02-28T15:46:39;102989.65;;;7.94;55.21
68712;BME280;55690;51.566;19.198;2023-02-28T15:50:42;102989.39;;;7.71;55.55
68712;BME280;55690;51.566;19.198;2023-02-28T15:54:44;102992.21;;;7.66;55.43
68712;BME280;55690;51.566;19.198;2023-02-28T15:58:47;102989.60;;;7.63;55.62
68712;BME280;55690;51.566;19.198;2023-02-28T16:02:50;102992.31;;;7.28;56.36
68712;BME280;55690;51.566;19.198;2023-02-28T16:07:01;102992.60;;;7.51;56.72
68712;BME280;55690;51.566;19.198;2023-02-28T16:11:03;102998.70;;;7.59;56.85
68712;BME280;55690;51.566;19.198;2023-02-28T16:19:18;103000.09;;;7.76;56.03
68712;BME280;55690;51.566;19.198;2023-02-28T16:23:19;103003.67;;;7.41;56.13
68712;BME280;55690;51.566;19.198;2023-02-28T16:27:29;103003.04;;;7.31;56.42
68712;BME280;55690;51.566;19.198;2023-02-28T16:31:35;103008.07;;;6.69;57.53
68712;BME280;55690;51.566;19.198;2023-02-28T16:35:38;103018.48;;;6.87;57.19
68712;BME280;55690;51.566;19.198;2023-02-28T16:39:40;103022.17;;;6.42;57.76
68712;BME280;55690;51.566;19.198;2023-02-28T16:43:44;103024.09;;;6.78;57.46
68712;BME280;55690;51.566;19.198;2023-02-28T16:47:46;103025.32;;;6.62;58.06
68712;BME280;55690;51.566;19.198;2023-02-28T16:51:48;103035.55;;;6.48;58.66
68712;BME280;55690;51.566;19.198;2023-02-28T16:55:49;103038.63;;;6.71;57.96
68712;BME280;55690;51.566;19.198;2023-02-28T16:59:52;103051.34;;;6.21;58.37
68712;BME280;55690;51.566;19.198;2023-02-28T17:03:53;103065.41;;;5.88;60.04
68712;BME280;55690;51.566;19.198;2023-02-28T17:07:54;103059.48;;;5.66;60.80
68712;BME280;55690;51.566;19.198;2023-02-28T17:11:56;103069.13;;;5.81;60.12
68712;BME280;55690;51.566;19.198;2023-02-28T17:15:57;103072.02;;;5.68;60.34
68712;BME280;55690;51.566;19.198;2023-02-28T17:19:59;103076.13;;;5.37;61.12
68712;BME280;55690;51.566;19.198;2023-02-28T17:24:00;103076.30;;;5.25;61.58
68712;BME280;55690;51.566;19.198;2023-02-28T17:28:02;103051.34;;;5.15;61.47
68712;BME280;55690;51.566;19.198;2023-02-28T17:32:04;103075.38;;;5.27;61.49
68712;BME280;55690;51.566;19.198;2023-02-28T17:36:08;103063.17;;;5.04;61.82
68712;BME280;55690;51.566;19.198;2023-02-28T17:40:18;103064.84;;;5.12;62.03
68712;BME280;55690;51.566;19.198;2023-02-28T17:44:20;103061.59;;;4.87;62.72
68712;BME280;55690;51.566;19.198;2023-02-28T17:48:21;103060.77;;;5.44;61.53
68712;BME280;55690;51.566;19.198;2023-02-28T17:52:23;103057.23;;;5.40;60.98
68712;BME280;55690;51.566;19.198;2023-02-28T17:56:25;103061.84;;;5.32;61.24
68712;BME280;55690;51.566;19.198;2023-02-28T18:00:27;103062.46;;;4.16;64.06
68712;BME280;55690;51.566;19.198;2023-02-28T18:04:29;103063.28;;;4.24;64.74
68712;BME280;55690;51.566;19.198;2023-02-28T18:08:32;103059.24;;;4.61;63.72
68712;BME280;55690;51.566;19.198;2023-02-28T18:12:36;103064.27;;;4.14;64.51
68712;BME280;55690;51.566;19.198;2023-02-28T18:16:39;103064.20;;;4.21;64.12
68712;BME280;55690;51.566;19.198;2023-02-28T18:20:40;103060.51;;;4.31;64.64
68712;BME280;55690;51.566;19.198;2023-02-28T18:24:42;103073.27;;;4.10;65.00
68712;BME280;55690;51.566;19.198;2023-02-28T18:28:43;103063.52;;;3.99;65.82
68712;BME280;55690;51.566;19.198;2023-02-28T18:32:45;103062.20;;;4.39;65.35
68712;BME280;55690;51.566;19.198;2023-02-28T18:36:47;103063.43;;;4.09;65.60
68712;BME280;55690;51.566;19.198;2023-02-28T18:40:52;103068.86;;;4.03;65.34
68712;BME280;55690;51.566;19.198;2023-02-28T18:44:54;103065.13;;;4.19;65.40
68712;BME280;55690;51.566;19.198;2023-02-28T18:48:56;103070.61;;;4.08;64.80
68712;BME280;55690;51.566;19.198;2023-02-28T18:52:57;103070.45;;;4.25;64.76
68712;BME280;55690;51.566;19.198;2023-02-28T18:56:59;103075.96;;;4.10;65.28
68712;BME280;55690;51.566;19.198;2023-02-28T19:01:02;103068.92;;;3.96;65.57
68712;BME280;55690;51.566;19.198;2023-02-28T19:05:04;103071.84;;;3.72;66.19
68712;BME280;55690;51.566;19.198;2023-02-28T19:09:06;103071.85;;;3.71;67.04
68712;BME280;55690;51.566;19.198;2023-02-28T19:13:08;103068.25;;;3.73;66.44
68712;BME280;55690;51.566;19.198;2023-02-28T19:17:10;103076.37;;;3.65;66.71
68712;BME280;55690;51.566;19.198;2023-02-28T19:21:14;103067.34;;;3.74;66.49
68712;BME280;55690;51.566;19.198;2023-02-28T19:25:16;103048.70;;;3.54;66.79
68712;BME280;55690;51.566;19.198;2023-02-28T19:29:19;103070.14;;;3.60;67.16
68712;BME280;55690;51.566;19.198;2023-02-28T19:33:20;103068.29;;;3.68;67.18
68712;BME280;55690;51.566;19.198;2023-02-28T19:37:22;103067.66;;;3.36;67.32
68712;BME280;55690;51.566;19.198;2023-02-28T19:41:23;103071.07;;;3.55;66.59
68712;BME280;55690;51.566;19.198;2023-02-28T19:45:25;103065.65;;;3.62;66.48
68712;BME280;55690;51.566;19.198;2023-02-28T19:49:26;103069.41;;;3.43;67.37
68712;BME280;55690;51.566;19.198;2023-02-28T19:53:32;103059.61;;;3.36;67.55
68712;BME280;55690;51.566;19.198;2023-02-28T19:57:34;103052.30;;;3.50;67.86
68712;BME280;55690;51.566;19.198;2023-02-28T20:01:35;103055.12;;;3.38;67.57
68712;BME280;55690;51.566;19.198;2023-02-28T20:05:38;103046.77;;;3.72;66.57
68712;BME280;55690;51.566;19.198;2023-02-28T20:09:39;103045.10;;;3.55;66.66
68712;BME280;55690;51.566;19.198;2023-02-28T20:13:42;103047.95;;;3.37;67.73
68712;BME280;55690;51.566;19.198;2023-02-28T20:17:43;103047.92;;;3.42;67.19
68712;BME280;55690;51.566;19.198;2023-02-28T20:21:50;103053.22;;;3.48;66.96
68712;BME280;55690;51.566;19.198;2023-02-28T20:25:59;103053.30;;;3.43;66.99
68712;BME280;55690;51.566;19.198;2023-02-28T20:30:03;103049.76;;;3.35;66.54
68712;BME280;55690;51.566;19.198;2023-02-28T20:34:08;103055.13;;;3.35;66.80
68712;BME280;55690;51.566;19.198;2023-02-28T20:38:14;103044.52;;;3.14;67.21
68712;BME280;55690;51.566;19.198;2023-02-28T20:42:21;103045.52;;;3.02;67.43
68712;BME280;55690;51.566;19.198;2023-02-28T20:46:28;103045.41;;;3.16;67.65
68712;BME280;55690;51.566;19.198;2023-02-28T20:50:33;103053.37;;;3.31;67.27
68712;BME280;55690;51.566;19.198;2023-02-28T20:54:39;103044.66;;;2.95;69.16
68712;BME280;55690;51.566;19.198;2023-02-28T20:58:47;103038.43;;;2.90;68.95
68712;BME280;55690;51.566;19.198;2023-02-28T21:02:52;103041.05;;;3.01;68.74
68712;BME280;55690;51.566;19.198;2023-02-28T21:06:58;103042.84;;;3.02;68.47
68712;BME280;55690;51.566;19.198;2023-02-28T21:11:08;103043.77;;;2.96;68.81
68712;BME280;55690;51.566;19.198;2023-02-28T21:15:11;103046.45;;;2.96;68.66
68712;BME280;55690;51.566;19.198;2023-02-28T21:19:16;103058.07;;;2.97;67.89
68712;BME280;55690;51.566;19.198;2023-02-28T21:23:23;103065.27;;;2.87;68.75
68712;BME280;55690;51.566;19.198;2023-02-28T21:27:29;103071.51;;;2.91;68.19
68712;BME280;55690;51.566;19.198;2023-02-28T21:31:36;103084.02;;;2.95;67.64
68712;BME280;55690;51.566;19.198;2023-02-28T21:35:41;103074.17;;;2.98;67.58
68712;BME280;55690;51.566;19.198;2023-02-28T21:39:47;103081.31;;;2.99;67.63
68712;BME280;55690;51.566;19.198;2023-02-28T21:43:55;103080.52;;;2.78;68.68
68712;BME280;55690;51.566;19.198;2023-02-28T21:48:00;103080.58;;;2.61;68.46
68712;BME280;55690;51.566;19.198;2023-02-28T21:52:06;103076.20;;;2.40;68.60
68712;BME280;55690;51.566;19.198;2023-02-28T21:56:24;103076.21;;;2.32;69.23
68712;BME280;55690;51.566;19.198;2023-02-28T22:00:26;103076.21;;;2.32;68.74
68712;BME280;55690;51.566;19.198;2023-02-28T22:04:27;103072.64;;;2.23;69.81
68712;BME280;55690;51.566;19.198;2023-02-28T22:08:31;103073.59;;;2.14;69.74
68712;BME280;55690;51.566;19.198;2023-02-28T22:12:37;103075.30;;;2.37;68.94
68712;BME280;55690;51.566;19.198;2023-02-28T22:16:43;103069.05;;;2.34;68.94
68712;BME280;55690;51.566;19.198;2023-02-28T22:20:54;103069.96;;;2.29;68.78
68712;BME280;55690;51.566;19.198;2023-02-28T22:24:55;103076.30;;;1.99;69.05
68712;BME280;55690;51.566;19.198;2023-02-28T22:29:02;103083.44;;;1.97;69.34
68712;BME280;55690;51.566;19.198;2023-02-28T22:33:08;103078.09;;;1.94;69.76
68712;BME280;55690;51.566;19.198;2023-02-28T22:37:14;103070.05;;;1.92;69.45
68712;BME280;55690;51.566;19.198;2023-02-28T22:41:22;103070.94;;;1.88;69.72
68712;BME280;55690;51.566;19.198;2023-02-28T22:45:27;103072.72;;;1.85;69.48
68712;BME280;55690;51.566;19.198;2023-02-28T22:49:33;103076.30;;;1.84;69.91
68712;BME280;55690;51.566;19.198;2023-02-28T22:53:40;103074.50;;;1.96;69.35
68712;BME280;55690;51.566;19.198;2023-02-28T22:57:45;103076.30;;;2.00;69.36
68712;BME280;55690;51.566;19.198;2023-02-28T23:01:51;103075.33;;;2.26;69.17
68712;BME280;55690;51.566;19.198;2023-02-28T23:05:57;103085.22;;;2.09;68.88
68712;BME280;55690;51.566;19.198;2023-02-28T23:10:06;103085.22;;;1.77;69.77
68712;BME280;55690;51.566;19.198;2023-02-28T23:14:12;103078.09;;;1.88;68.95
68712;BME280;55690;51.566;19.198;2023-02-28T23:18:17;103082.55;;;1.87;68.94
68712;BME280;55690;51.566;19.198;2023-02-28T23:22:22;103087.00;;;1.87;68.95
68712;BME280;55690;51.566;19.198;2023-02-28T23:26:30;103095.94;;;1.92;68.99
68712;BME280;55690;51.566;19.198;2023-02-28T23:30:38;103102.19;;;1.89;68.68
68712;BME280;55690;51.566;19.198;2023-02-28T23:34:41;103092.36;;;1.79;68.81
68712;BME280;55690;51.566;19.198;2023-02-28T23:38:49;103085.22;;;1.74;69.15
68712;BME280;55690;51.566;19.198;2023-02-28T23:42:53;103097.73;;;1.93;68.06
68712;BME280;55690;51.566;19.198;2023-02-28T23:47:00;103095.94;;;1.86;68.54
68712;BME280;55690;51.566;19.198;2023-02-28T23:51:09;103087.91;;;1.63;69.76
68712;BME280;55690;51.566;19.198;2023-02-28T23:55:12;103084.33;;;1.75;68.58
68712;BME280;55690;51.566;19.198;2023-02-28T23:59:18;103084.35;;;1.59;69.04
